createdAt,value
2019-05-17T00:00:23.205Z,11.16
2019-05-17T00:02:57.133Z,11.05
2019-05-17T00:05:29.107Z,10.98
2019-05-17T00:08:00.762Z,11.06
2019-05-17T00:10:32.034Z,11.32
2019-05-17T00:13:07.580Z,12.04
2019-05-17T00:15:38.873Z,12.57
2019-05-17T00:18:10.605Z,12.08
2019-05-17T00:20:42.753Z,12.13
2019-05-17T00:23:17.418Z,12.72
2019-05-17T00:25:49.366Z,13.12
2019-05-17T00:28:20.870Z,13.46
2019-05-17T00:30:52.748Z,13.59
2019-05-17T00:33:24.156Z,12.90
2019-05-17T00:35:56.252Z,12.32
2019-05-17T00:38:29.981Z,12.24
2019-05-17T00:41:02.691Z,12.64
2019-05-17T00:43:36.700Z,13.01
2019-05-17T00:46:07.822Z,13.28
2019-05-17T00:48:39.380Z,13.48
2019-05-17T00:51:11.663Z,11.69
2019-05-17T00:53:43.384Z,13.21
2019-05-17T00:56:17.105Z,13.47
2019-05-17T00:58:51.165Z,12.91
2019-05-17T01:01:23.349Z,12.28
2019-05-17T01:03:57.152Z,12.64
2019-05-17T01:06:29.062Z,12.42
2019-05-17T01:09:03.988Z,12.34
2019-05-17T01:11:36.434Z,12.84
2019-05-17T01:14:07.070Z,13.31
2019-05-17T01:16:38.553Z,13.40
2019-05-17T01:19:11.991Z,13.82
2019-05-17T01:21:44.402Z,14.13
2019-05-17T01:24:17.331Z,14.41
2019-05-17T01:26:50.888Z,13.78
2019-05-17T01:29:22.260Z,13.26
2019-05-17T01:31:53.737Z,13.06
2019-05-17T01:34:27.086Z,11.98
2019-05-17T01:36:57.892Z,11.29
2019-05-17T01:39:29.277Z,11.25
2019-05-17T01:42:00.668Z,10.99
2019-05-17T01:44:33.302Z,10.94
2019-05-17T01:47:07.430Z,11.20
2019-05-17T01:49:38.813Z,11.17
2019-05-17T01:52:10.568Z,11.33
2019-05-17T01:54:42.283Z,11.36
2019-05-17T01:57:13.802Z,11.17
2019-05-17T01:59:46.683Z,11.36
2019-05-17T02:02:23.613Z,11.47
2019-05-17T02:04:57.012Z,11.46
2019-05-17T02:07:28.542Z,11.60
2019-05-17T02:10:01.328Z,11.82
2019-05-17T02:12:43.413Z,12.42
2019-05-17T02:15:18.199Z,13.11
2019-05-17T02:17:49.491Z,13.31
2019-05-17T02:20:21.138Z,13.47
2019-05-17T02:22:52.993Z,13.83
2019-05-17T02:25:27.104Z,14.13
2019-05-17T02:27:58.255Z,14.26
2019-05-17T02:30:33.470Z,14.14
2019-05-17T02:33:04.041Z,14.34
2019-05-17T02:35:36.331Z,14.53
2019-05-17T02:38:07.857Z,14.58
2019-05-17T02:40:42.832Z,13.82
2019-05-17T02:43:13.277Z,12.72
2019-05-17T02:45:45.046Z,12.81
2019-05-17T02:48:16.485Z,13.33
2019-05-17T02:50:48.416Z,13.46
2019-05-17T02:53:22.739Z,13.69
2019-05-17T02:55:54.103Z,13.64
2019-05-17T02:58:25.682Z,12.68
2019-05-17T03:00:58.897Z,11.85
2019-05-17T03:03:32.538Z,11.42
2019-05-17T03:06:03.904Z,11.04
2019-05-17T03:08:35.471Z,11.05
2019-05-17T03:11:06.688Z,11.72
2019-05-17T03:13:37.922Z,11.96
2019-05-17T03:16:09.160Z,11.89
2019-05-17T03:18:43.648Z,11.55
2019-05-17T03:21:13.933Z,12.31
2019-05-17T03:23:45.649Z,12.94
2019-05-17T03:26:16.866Z,13.37
2019-05-17T03:28:48.220Z,13.70
2019-05-17T03:31:25.697Z,13.96
2019-05-17T03:33:56.219Z,14.06
2019-05-17T03:36:28.696Z,14.00
2019-05-17T03:39:03.057Z,14.10
2019-05-17T03:41:34.246Z,14.24
2019-05-17T03:44:05.816Z,14.19
2019-05-17T03:46:37.319Z,14.24
2019-05-17T03:49:08.901Z,14.28
2019-05-17T03:51:42.572Z,14.29
2019-05-17T03:54:14.115Z,13.75
2019-05-17T03:56:46.185Z,13.37
2019-05-17T03:59:17.755Z,12.96
2019-05-17T04:01:52.607Z,13.02
2019-05-17T04:04:23.403Z,13.13
2019-05-17T04:06:55.093Z,13.02
2019-05-17T04:09:26.676Z,13.24
2019-05-17T04:11:59.022Z,13.21
2019-05-17T04:14:33.454Z,12.99
2019-05-17T04:17:03.495Z,12.50
2019-05-17T04:19:34.918Z,12.44
2019-05-17T04:22:06.341Z,12.24
2019-05-17T04:24:38.005Z,12.13
2019-05-17T04:27:09.549Z,12.12
2019-05-17T04:29:42.528Z,12.12
2019-05-17T04:32:14.545Z,12.11
2019-05-17T04:34:47.266Z,11.99
2019-05-17T04:37:22.622Z,12.01
2019-05-17T04:39:53.148Z,12.16
2019-05-17T04:42:25.352Z,12.31
2019-05-17T04:44:58.262Z,12.10
2019-05-17T04:47:33.287Z,11.79
2019-05-17T04:50:17.144Z,11.85
2019-05-17T04:52:48.732Z,10.95
2019-05-17T04:55:23.193Z,10.61
2019-05-17T04:57:55.495Z,11.16
2019-05-17T05:00:27.100Z,11.83
2019-05-17T05:02:58.815Z,12.17
2019-05-17T05:05:33.081Z,12.35
2019-05-17T05:08:03.824Z,12.03
2019-05-17T05:10:38.403Z,12.37
2019-05-17T05:13:08.872Z,12.20
2019-05-17T05:15:44.011Z,11.51
2019-05-17T05:18:16.220Z,12.49
2019-05-17T05:20:48.045Z,12.68
2019-05-17T05:23:23.551Z,12.84
2019-05-17T05:25:53.132Z,12.84
2019-05-17T05:28:24.572Z,12.92
2019-05-17T05:30:56.486Z,12.88
2019-05-17T05:33:28.176Z,12.09
2019-05-17T05:36:02.016Z,12.43
2019-05-17T05:38:33.285Z,12.55
2019-05-17T05:41:04.812Z,11.79
2019-05-17T05:43:36.746Z,11.55
2019-05-17T05:46:08.891Z,12.25
2019-05-17T05:48:41.600Z,12.19
2019-05-17T05:51:13.909Z,12.50
2019-05-17T05:53:47.044Z,10.55
2019-05-17T05:56:18.679Z,10.44
2019-05-17T05:58:52.187Z,11.04
2019-05-17T06:01:23.057Z,12.02
2019-05-17T06:03:54.529Z,12.43
2019-05-17T06:06:28.166Z,12.75
2019-05-17T06:08:59.362Z,12.74
2019-05-17T06:11:32.180Z,12.92
2019-05-17T06:14:05.772Z,13.45
2019-05-17T06:16:37.105Z,13.39
2019-05-17T06:19:08.973Z,13.55
2019-05-17T06:21:42.530Z,13.42
2019-05-17T06:24:13.330Z,13.96
2019-05-17T06:26:45.077Z,14.01
2019-05-17T06:29:16.849Z,13.44
2019-05-17T06:31:48.711Z,13.76
2019-05-17T06:34:22.339Z,13.31
2019-05-17T06:36:53.869Z,12.36
2019-05-17T06:39:25.294Z,11.89
2019-05-17T06:41:56.555Z,12.37
2019-05-17T06:44:27.756Z,12.73
2019-05-17T06:46:59.173Z,12.54
2019-05-17T06:49:31.828Z,12.56
2019-05-17T06:52:03.252Z,12.58
2019-05-17T06:54:34.926Z,12.75
2019-05-17T06:57:07.491Z,12.93
2019-05-17T06:59:38.872Z,13.17
2019-05-17T07:02:10.570Z,13.33
2019-05-17T07:04:42.263Z,13.08
2019-05-17T07:07:30.944Z,13.02
2019-05-17T07:10:02.688Z,13.03
2019-05-17T07:12:55.951Z,13.06
2019-05-17T07:15:19.885Z,13.01
2019-05-17T07:17:51.235Z,13.19
2019-05-17T07:20:23.263Z,13.13
2019-05-17T07:22:54.834Z,12.67
2019-05-17T07:25:26.758Z,12.56
2019-05-17T07:28:00.447Z,11.75
2019-05-17T07:30:31.967Z,11.87
2019-05-17T07:33:05.371Z,11.80
2019-05-17T07:35:39.611Z,11.36
2019-05-17T07:38:11.163Z,11.98
2019-05-17T07:40:42.555Z,11.75
2019-05-17T07:43:16.008Z,12.55
2019-05-17T07:45:49.506Z,12.67
2019-05-17T07:48:21.738Z,12.30
2019-05-17T07:50:53.526Z,12.78
2019-05-17T07:53:25.387Z,12.90
2019-05-17T07:55:59.471Z,13.49
2019-05-17T07:58:30.493Z,13.40
2019-05-17T08:01:02.439Z,14.34
2019-05-17T08:03:34.636Z,15.13
2019-05-17T08:06:05.918Z,14.95
2019-05-17T08:08:37.167Z,14.99
2019-05-17T08:11:10.587Z,14.69
2019-05-17T08:13:42.059Z,14.31
2019-05-17T08:16:13.611Z,14.50
2019-05-17T08:18:45.257Z,14.70
2019-05-17T08:21:19.715Z,15.30
2019-05-17T08:23:51.055Z,15.01
2019-05-17T08:26:23.997Z,15.87
2019-05-17T08:28:55.750Z,15.93
2019-05-17T08:31:29.436Z,15.96
2019-05-17T08:34:02.422Z,16.36
2019-05-17T08:36:33.826Z,16.11
2019-05-17T08:39:10.235Z,16.32
2019-05-17T08:41:41.688Z,16.26
2019-05-17T08:44:13.347Z,16.35
2019-05-17T08:46:44.850Z,16.49
2019-05-17T08:49:16.146Z,16.62
2019-05-17T08:51:50.009Z,16.57
2019-05-17T08:54:22.151Z,16.63
2019-05-17T08:56:54.316Z,16.88
2019-05-17T08:59:25.595Z,16.80
2019-05-17T09:01:57.133Z,16.84
2019-05-17T09:04:29.728Z,16.71
2019-05-17T09:07:03.204Z,16.60
2019-05-17T09:09:36.735Z,16.75
2019-05-17T09:12:10.999Z,17.33
2019-05-17T09:14:42.501Z,17.68
2019-05-17T09:17:14.621Z,17.38
2019-05-17T09:19:46.100Z,16.42
2019-05-17T09:22:22.194Z,17.17
2019-05-17T09:24:53.620Z,17.11
2019-05-17T09:27:25.413Z,17.14
2019-05-17T09:29:59.887Z,17.27
2019-05-17T09:32:31.521Z,17.08
2019-05-17T09:35:13.195Z,17.32
2019-05-17T09:37:49.870Z,17.31
2019-05-17T09:40:20.885Z,17.35
2019-05-17T09:42:52.686Z,17.64
2019-05-17T09:45:24.400Z,17.58
2019-05-17T09:47:56.611Z,17.44
2019-05-17T09:50:29.408Z,17.26
2019-05-17T09:53:01.339Z,17.12
2019-05-17T09:55:34.833Z,17.22
2019-05-17T09:58:06.107Z,17.00
2019-05-17T10:00:38.427Z,17.06
2019-05-17T10:03:10.095Z,17.15
2019-05-17T10:05:41.933Z,17.57
2019-05-17T10:08:13.168Z,17.59
2019-05-17T10:11:06.068Z,17.55
2019-05-17T10:13:29.647Z,17.51
2019-05-17T10:16:01.887Z,17.71
2019-05-17T10:18:33.202Z,17.93
2019-05-17T10:21:04.723Z,17.42
2019-05-17T10:23:36.938Z,17.30
2019-05-17T10:26:10.222Z,17.31
2019-05-17T10:28:42.542Z,17.19
2019-05-17T10:31:14.487Z,17.22
2019-05-17T10:33:46.088Z,16.83
2019-05-17T10:36:20.271Z,16.81
2019-05-17T10:38:52.294Z,17.19
2019-05-17T10:41:24.186Z,17.69
2019-05-17T10:43:55.919Z,17.95
2019-05-17T10:46:29.972Z,18.37
2019-05-17T10:49:01.494Z,18.28
2019-05-17T10:51:32.879Z,18.09
2019-05-17T10:54:04.615Z,18.23
2019-05-17T10:56:35.958Z,18.45
2019-05-17T10:59:09.829Z,18.43
2019-05-17T11:01:41.326Z,17.95
2019-05-17T11:04:12.822Z,18.40
2019-05-17T11:06:44.145Z,18.81
2019-05-17T11:09:15.379Z,18.72
2019-05-17T11:11:47.005Z,18.46
2019-05-17T11:14:18.300Z,18.79
2019-05-17T11:16:49.498Z,18.72
2019-05-17T11:19:21.944Z,18.43
2019-05-17T11:21:54.403Z,18.57
2019-05-17T11:24:25.767Z,18.87
2019-05-17T11:27:01.389Z,19.13
2019-05-17T11:29:32.762Z,18.94
2019-05-17T11:32:04.922Z,19.05
2019-05-17T11:34:36.268Z,19.12
2019-05-17T11:37:08.823Z,19.10
2019-05-17T11:39:40.150Z,18.84
2019-05-17T11:42:11.975Z,18.68
2019-05-17T11:44:47.225Z,18.75
2019-05-17T11:47:19.403Z,19.17
2019-05-17T11:49:51.640Z,18.71
2019-05-17T11:52:23.406Z,19.02
2019-05-17T11:54:55.293Z,18.66
2019-05-17T11:57:27.551Z,18.59
2019-05-17T11:59:59.618Z,18.82
2019-05-17T12:02:32.163Z,19.20
2019-05-17T12:05:15.092Z,19.34
2019-05-17T12:07:46.808Z,19.15
2019-05-17T12:10:19.562Z,18.79
2019-05-17T12:12:52.212Z,19.07
2019-05-17T12:15:24.000Z,19.32
2019-05-17T12:17:57.897Z,19.55
2019-05-17T12:20:30.005Z,19.45
2019-05-17T12:23:01.899Z,19.05
2019-05-17T12:25:33.166Z,19.15
2019-05-17T12:28:04.580Z,18.91
2019-05-17T12:30:35.954Z,19.01
2019-05-17T12:33:07.347Z,19.33
2019-05-17T12:35:39.010Z,19.37
2019-05-17T12:38:11.758Z,19.11
2019-05-17T12:40:43.419Z,19.01
2019-05-17T12:43:15.123Z,19.08
2019-05-17T12:46:00.339Z,19.08
2019-05-17T12:48:22.353Z,18.96
2019-05-17T12:50:53.834Z,18.78
2019-05-17T12:53:27.259Z,18.65
2019-05-17T12:56:01.044Z,18.75
2019-05-17T12:58:35.921Z,18.64
2019-05-17T13:01:07.390Z,18.64
2019-05-17T13:03:38.896Z,18.70
2019-05-17T13:06:10.508Z,18.55
2019-05-17T13:08:42.420Z,18.48
2019-05-17T13:11:14.306Z,18.34
2019-05-17T13:13:46.874Z,18.35
2019-05-17T13:16:19.371Z,18.51
2019-05-17T13:18:51.037Z,18.63
2019-05-17T13:21:22.436Z,18.72
2019-05-17T13:23:56.095Z,18.50
2019-05-17T13:26:27.337Z,18.59
2019-05-17T13:28:59.160Z,18.38
2019-05-17T13:31:30.527Z,18.02
2019-05-17T13:34:02.231Z,18.01
2019-05-17T13:36:34.657Z,17.98
2019-05-17T13:39:08.406Z,18.07
2019-05-17T13:41:40.920Z,18.23
2019-05-17T13:44:14.412Z,18.37
2019-05-17T13:46:46.904Z,18.58
2019-05-17T13:49:20.122Z,18.38
2019-05-17T13:51:52.041Z,18.08
2019-05-17T13:54:24.318Z,17.85
2019-05-17T13:56:55.847Z,17.93
2019-05-17T13:59:27.392Z,17.99
2019-05-17T14:01:58.741Z,18.12
2019-05-17T14:04:31.041Z,18.11
2019-05-17T14:07:03.297Z,17.94
2019-05-17T14:09:35.801Z,18.19
2019-05-17T14:12:08.417Z,18.43
2019-05-17T14:14:39.941Z,18.41
2019-05-17T14:17:11.841Z,18.44
2019-05-17T14:19:44.249Z,18.53
2019-05-17T14:22:17.177Z,18.24
2019-05-17T14:24:49.404Z,18.24
2019-05-17T14:27:21.413Z,18.62
2019-05-17T14:29:54.047Z,18.34
2019-05-17T14:32:27.198Z,18.12
2019-05-17T14:34:59.740Z,17.74
2019-05-17T14:37:39.952Z,17.95
2019-05-17T14:40:16.892Z,17.60
2019-05-17T14:42:48.471Z,17.66
2019-05-17T14:45:20.077Z,17.41
2019-05-17T14:47:52.166Z,17.55
2019-05-17T14:50:23.959Z,17.36
2019-05-17T14:52:55.835Z,17.09
2019-05-17T14:55:28.365Z,17.24
2019-05-17T14:58:00.636Z,17.27
2019-05-17T15:00:32.567Z,17.24
2019-05-17T15:03:07.300Z,17.03
2019-05-17T15:05:38.090Z,17.01
2019-05-17T15:08:09.803Z,15.62
2019-05-17T15:10:41.867Z,17.16
2019-05-17T15:13:13.461Z,16.95
2019-05-17T15:15:44.974Z,17.11
2019-05-17T15:18:16.633Z,16.90
2019-05-17T15:20:49.002Z,16.63
2019-05-17T15:23:20.770Z,16.61
2019-05-17T15:25:52.637Z,16.66
2019-05-17T15:28:24.312Z,16.36
2019-05-17T15:30:55.829Z,16.39
2019-05-17T15:33:30.313Z,16.45
2019-05-17T15:36:01.941Z,16.58
2019-05-17T15:38:33.423Z,16.48
2019-05-17T15:41:05.517Z,16.29
2019-05-17T15:43:36.775Z,16.20
2019-05-17T15:46:08.418Z,16.20
2019-05-17T15:48:39.897Z,15.84
2019-05-17T15:51:11.250Z,16.00
2019-05-17T15:53:43.515Z,15.91
2019-05-17T15:56:16.495Z,15.96
2019-05-17T15:58:48.218Z,16.10
2019-05-17T16:01:19.548Z,16.16
2019-05-17T16:03:51.358Z,16.04
2019-05-17T16:06:23.186Z,16.03
2019-05-17T16:08:54.724Z,16.12
2019-05-17T16:11:26.970Z,15.99
2019-05-17T16:13:59.036Z,16.06
2019-05-17T16:16:30.359Z,15.90
2019-05-17T16:19:04.289Z,15.86
2019-05-17T16:21:36.123Z,15.92
2019-05-17T16:24:08.005Z,15.67
2019-05-17T16:26:39.821Z,15.56
2019-05-17T16:29:11.151Z,15.59
2019-05-17T16:31:42.528Z,14.66
2019-05-17T16:34:14.369Z,15.44
2019-05-17T16:36:47.233Z,15.55
2019-05-17T16:39:21.125Z,15.65
2019-05-17T16:41:52.787Z,15.53
2019-05-17T16:44:24.273Z,15.57
2019-05-17T16:46:55.632Z,15.39
2019-05-17T16:49:30.014Z,15.30
2019-05-17T16:52:02.174Z,15.39
2019-05-17T16:54:33.765Z,15.47
2019-05-17T16:57:05.343Z,15.49
2019-05-17T16:59:37.501Z,15.39
2019-05-17T17:02:09.511Z,15.38
2019-05-17T17:04:41.410Z,15.62
2019-05-17T17:07:13.222Z,15.10
2019-05-17T17:09:45.664Z,14.94
2019-05-17T17:12:17.297Z,14.52
2019-05-17T17:14:56.905Z,14.75
2019-05-17T17:17:28.417Z,14.94
2019-05-17T17:20:00.197Z,14.97
2019-05-17T17:22:31.713Z,14.63
2019-05-17T17:25:14.322Z,14.62
2019-05-17T17:27:46.111Z,14.44
2019-05-17T17:30:17.675Z,14.49
2019-05-17T17:32:49.061Z,14.61
2019-05-17T17:35:20.728Z,14.71
2019-05-17T17:37:52.151Z,14.57
2019-05-17T17:40:24.871Z,14.65
2019-05-17T17:42:56.453Z,14.67
2019-05-17T17:45:28.432Z,14.69
2019-05-17T17:48:00.049Z,14.58
2019-05-17T17:50:31.817Z,14.74
2019-05-17T17:53:13.319Z,14.69
2019-05-17T17:55:55.192Z,14.61
2019-05-17T17:58:26.763Z,14.60
2019-05-17T18:00:58.338Z,14.37
2019-05-17T18:03:46.459Z,14.31
2019-05-17T18:06:19.230Z,14.24
2019-05-17T18:08:51.709Z,13.99
2019-05-17T18:11:23.191Z,13.92
2019-05-17T18:13:55.923Z,13.82
2019-05-17T18:16:27.545Z,13.80
2019-05-17T18:18:59.073Z,13.80
2019-05-17T18:21:30.540Z,13.72
2019-05-17T18:24:02.092Z,13.58
2019-05-17T18:26:34.102Z,13.58
2019-05-17T18:29:07.921Z,13.47
2019-05-17T18:31:39.471Z,13.50
2019-05-17T18:34:10.865Z,13.40
2019-05-17T18:36:44.813Z,13.45
2019-05-17T18:39:16.483Z,13.26
2019-05-17T18:41:48.020Z,13.29
2019-05-17T18:44:27.234Z,13.33
2019-05-17T18:46:53.101Z,13.21
2019-05-17T18:49:24.740Z,13.19
2019-05-17T18:51:56.792Z,13.13
2019-05-17T18:54:28.647Z,13.21
2019-05-17T18:57:00.393Z,13.09
2019-05-17T18:59:31.978Z,13.04
2019-05-17T19:02:04.433Z,13.06
2019-05-17T19:04:35.780Z,12.33
2019-05-17T19:07:08.218Z,13.04
2019-05-17T19:09:41.406Z,12.95
2019-05-17T19:12:16.314Z,13.13
2019-05-17T19:15:00.514Z,13.22
2019-05-17T19:17:31.237Z,12.99
2019-05-17T19:20:03.199Z,12.76
2019-05-17T19:22:46.598Z,12.84
2019-05-17T19:25:18.388Z,12.83
2019-05-17T19:27:51.069Z,12.86
2019-05-17T19:30:23.037Z,12.74
2019-05-17T19:32:54.583Z,12.61
2019-05-17T19:35:26.077Z,12.56
2019-05-17T19:37:57.552Z,12.72
2019-05-17T19:40:29.545Z,12.68
2019-05-17T19:43:01.135Z,12.67
2019-05-17T19:45:32.700Z,12.73
2019-05-17T19:48:04.245Z,12.59
2019-05-17T19:50:35.854Z,12.59
2019-05-17T19:53:07.645Z,12.75
2019-05-17T19:55:39.022Z,12.68
2019-05-17T19:58:11.511Z,12.66
2019-05-17T20:00:42.923Z,12.59
2019-05-17T20:03:16.828Z,12.49
2019-05-17T20:05:48.644Z,12.56
2019-05-17T20:08:20.220Z,12.56
2019-05-17T20:10:52.458Z,12.67
2019-05-17T20:13:24.317Z,12.50
2019-05-17T20:15:55.962Z,12.52
2019-05-17T20:18:27.505Z,12.85
2019-05-17T20:20:58.898Z,12.56
2019-05-17T20:23:30.316Z,12.65
2019-05-17T20:26:01.691Z,12.64
2019-05-17T20:28:33.263Z,12.44
2019-05-17T20:31:05.090Z,12.49
2019-05-17T20:33:37.003Z,12.69
2019-05-17T20:36:09.080Z,12.48
2019-05-17T20:38:40.694Z,12.75
2019-05-17T20:41:12.501Z,12.69
2019-05-17T20:43:44.292Z,12.48
2019-05-17T20:46:15.501Z,12.51
2019-05-17T20:48:46.924Z,12.45
2019-05-17T20:51:18.459Z,12.30
2019-05-17T20:53:49.876Z,12.05
2019-05-17T20:56:32.369Z,12.19
2019-05-17T20:58:56.681Z,12.27
2019-05-17T21:01:28.508Z,12.27
2019-05-17T21:03:59.867Z,12.13
2019-05-17T21:06:31.384Z,12.26
2019-05-17T21:09:02.630Z,12.13
2019-05-17T21:11:34.053Z,12.14
2019-05-17T21:14:05.444Z,12.38
2019-05-17T21:16:36.704Z,12.39
2019-05-17T21:19:08.032Z,12.36
2019-05-17T21:21:41.471Z,12.27
2019-05-17T21:24:13.154Z,12.05
2019-05-17T21:26:46.270Z,12.17
2019-05-17T21:29:17.527Z,11.95
2019-05-17T21:31:48.751Z,12.18
2019-05-17T21:34:20.988Z,12.42
2019-05-17T21:36:52.713Z,12.47
2019-05-17T21:39:24.137Z,12.54
2019-05-17T21:41:55.946Z,12.32
2019-05-17T21:44:27.418Z,12.10
2019-05-17T21:47:04.794Z,11.99
2019-05-17T21:49:32.422Z,12.08
2019-05-17T21:52:04.203Z,12.11
2019-05-17T21:54:35.934Z,12.17
2019-05-17T21:57:07.784Z,12.20
2019-05-17T21:59:39.476Z,12.30
2019-05-17T22:02:11.442Z,11.99
2019-05-17T22:04:45.038Z,11.89
2019-05-17T22:07:16.455Z,11.66
2019-05-17T22:09:48.237Z,11.59
2019-05-17T22:12:29.417Z,11.77
2019-05-17T22:15:19.004Z,11.66
2019-05-17T22:18:27.872Z,11.71
2019-05-17T22:20:59.481Z,11.48
2019-05-17T22:24:07.307Z,11.57
2019-05-17T22:26:44.738Z,11.44
2019-05-17T22:29:16.179Z,11.88
2019-05-17T22:31:49.113Z,11.81
2019-05-17T22:34:20.687Z,11.97
2019-05-17T22:36:52.148Z,11.95
2019-05-17T22:39:23.974Z,12.18
2019-05-17T22:41:55.657Z,11.71
2019-05-17T22:44:27.993Z,11.66
2019-05-17T22:46:59.661Z,11.37
2019-05-17T22:49:31.202Z,11.51
2019-05-17T22:52:02.612Z,11.41
2019-05-17T22:54:34.093Z,11.66
2019-05-17T22:57:05.797Z,11.62
2019-05-17T22:59:37.139Z,11.71
2019-05-17T23:02:09.166Z,11.91
2019-05-17T23:04:41.227Z,11.63
2019-05-17T23:07:12.726Z,11.64
2019-05-17T23:09:48.359Z,11.40
2019-05-17T23:12:19.684Z,11.44
2019-05-17T23:14:51.071Z,11.23
2019-05-17T23:17:25.272Z,11.44
2019-05-17T23:19:56.820Z,11.49
2019-05-17T23:22:29.108Z,11.63
2019-05-17T23:25:01.491Z,11.50
2019-05-17T23:27:43.469Z,11.82
2019-05-17T23:30:18.321Z,11.58
2019-05-17T23:32:49.639Z,11.41
2019-05-17T23:35:21.245Z,11.45
2019-05-17T23:37:52.979Z,11.49
2019-05-17T23:40:24.219Z,11.35
2019-05-17T23:42:55.505Z,11.20
2019-05-17T23:45:27.222Z,11.27
2019-05-17T23:47:58.542Z,11.29
2019-05-17T23:50:31.230Z,11.36
2019-05-17T23:53:02.464Z,11.46
2019-05-17T23:55:34.724Z,11.34
2019-05-17T23:58:06.298Z,11.38
